sensor_id;sensor_type;location;lat;lon;timestamp;temperature;humidity
7842;DHT22;3966;51.052;13.820;2022-11-20T00:01:08;-3.30;99.90
7842;DHT22;3966;51.052;13.820;2022-11-20T00:03:34;-3.30;99.90
7842;DHT22;3966;51.052;13.820;2022-11-20T00:06:04;-3.30;99.90
7842;DHT22;3966;51.052;13.820;2022-11-20T00:08:30;-3.30;99.90
7842;DHT22;3966;51.052;13.820;2022-11-20T00:10:56;-3.40;99.90
7842;DHT22;3966;51.052;13.820;2022-11-20T00:13:22;-3.60;99.90
7842;DHT22;3966;51.052;13.820;2022-11-20T00:15:47;-3.50;99.90
7842;DHT22;3966;51.052;13.820;2022-11-20T00:18:13;-3.60;99.90
7842;DHT22;3966;51.052;13.820;2022-11-20T00:20:38;-3.50;99.90
7842;DHT22;3966;51.052;13.820;2022-11-20T00:23:04;-3.60;99.90
7842;DHT22;3966;51.052;13.820;2022-11-20T00:25:31;-3.50;99.90
7842;DHT22;3966;51.052;13.820;2022-11-20T00:27:56;-3.50;99.90
7842;DHT22;3966;51.052;13.820;2022-11-20T00:30:22;-3.60;99.90
7842;DHT22;3966;51.052;13.820;2022-11-20T00:32:47;-3.70;99.90
7842;DHT22;3966;51.052;13.820;2022-11-20T00:35:13;-3.60;99.90
7842;DHT22;3966;51.052;13.820;2022-11-20T00:37:38;-3.70;99.90
7842;DHT22;3966;51.052;13.820;2022-11-20T00:40:04;-3.70;99.90
7842;DHT22;3966;51.052;13.820;2022-11-20T00:42:30;-3.70;99.90
7842;DHT22;3966;51.052;13.820;2022-11-20T00:44:58;-3.80;99.90
7842;DHT22;3966;51.052;13.820;2022-11-20T00:47:23;-3.70;99.90
7842;DHT22;3966;51.052;13.820;2022-11-20T00:49:48;-3.70;99.90
7842;DHT22;3966;51.052;13.820;2022-11-20T00:52:14;-3.70;99.90
7842;DHT22;3966;51.052;13.820;2022-11-20T00:54:39;-3.70;99.90
7842;DHT22;3966;51.052;13.820;2022-11-20T00:57:05;-3.70;99.90
7842;DHT22;3966;51.052;13.820;2022-11-20T00:59:30;-3.70;99.90
7842;DHT22;3966;51.052;13.820;2022-11-20T01:01:56;-3.70;99.90
7842;DHT22;3966;51.052;13.820;2022-11-20T01:04:21;-3.70;99.90
7842;DHT22;3966;51.052;13.820;2022-11-20T01:06:47;-3.70;99.90
7842;DHT22;3966;51.052;13.820;2022-11-20T01:09:14;-3.70;99.90
7842;DHT22;3966;51.052;13.820;2022-11-20T01:11:42;-3.70;99.90
7842;DHT22;3966;51.052;13.820;2022-11-20T01:14:11;-3.60;99.90
7842;DHT22;3966;51.052;13.820;2022-11-20T01:16:40;-3.70;99.90
7842;DHT22;3966;51.052;13.820;2022-11-20T01:19:10;-3.70;99.90
7842;DHT22;3966;51.052;13.820;2022-11-20T01:21:38;-3.90;99.90
7842;DHT22;3966;51.052;13.820;2022-11-20T01:24:07;-3.90;99.90
7842;DHT22;3966;51.052;13.820;2022-11-20T01:26:36;-4.10;99.90
7842;DHT22;3966;51.052;13.820;2022-11-20T01:29:02;-4.10;99.90
7842;DHT22;3966;51.052;13.820;2022-11-20T01:31:34;-4.00;99.90
7842;DHT22;3966;51.052;13.820;2022-11-20T01:34:01;-4.00;99.90
7842;DHT22;3966;51.052;13.820;2022-11-20T01:36:29;-4.00;99.90
7842;DHT22;3966;51.052;13.820;2022-11-20T01:38:57;-4.00;99.90
7842;DHT22;3966;51.052;13.820;2022-11-20T01:41:24;-4.00;99.90
7842;DHT22;3966;51.052;13.820;2022-11-20T01:44:09;-4.00;99.90
7842;DHT22;3966;51.052;13.820;2022-11-20T01:46:38;-4.00;99.90
7842;DHT22;3966;51.052;13.820;2022-11-20T01:49:16;-4.00;99.90
7842;DHT22;3966;51.052;13.820;2022-11-20T01:51:59;-4.00;99.90
7842;DHT22;3966;51.052;13.820;2022-11-20T01:54:54;-4.00;99.90
7842;DHT22;3966;51.052;13.820;2022-11-20T01:57:22;-4.00;99.90
7842;DHT22;3966;51.052;13.820;2022-11-20T01:59:55;-3.90;99.90
7842;DHT22;3966;51.052;13.820;2022-11-20T02:02:22;-4.00;99.90
7842;DHT22;3966;51.052;13.820;2022-11-20T02:04:49;-4.00;99.90
7842;DHT22;3966;51.052;13.820;2022-11-20T02:07:16;-4.10;99.90
7842;DHT22;3966;51.052;13.820;2022-11-20T02:09:42;-4.10;99.90
7842;DHT22;3966;51.052;13.820;2022-11-20T02:12:08;-4.10;99.90
7842;DHT22;3966;51.052;13.820;2022-11-20T02:14:53;-4.10;99.90
7842;DHT22;3966;51.052;13.820;2022-11-20T02:17:19;-4.00;99.90
7842;DHT22;3966;51.052;13.820;2022-11-20T02:19:45;-4.00;99.90
7842;DHT22;3966;51.052;13.820;2022-11-20T02:22:26;-4.00;99.90
7842;DHT22;3966;51.052;13.820;2022-11-20T02:24:54;-4.00;99.90
7842;DHT22;3966;51.052;13.820;2022-11-20T02:27:20;-4.10;99.90
7842;DHT22;3966;51.052;13.820;2022-11-20T02:30:04;-4.10;99.90
7842;DHT22;3966;51.052;13.820;2022-11-20T02:32:35;-4.10;99.90
7842;DHT22;3966;51.052;13.820;2022-11-20T02:37:48;-4.10;99.90
7842;DHT22;3966;51.052;13.820;2022-11-20T02:40:14;-4.10;99.90
7842;DHT22;3966;51.052;13.820;2022-11-20T02:42:39;-4.10;99.90
7842;DHT22;3966;51.052;13.820;2022-11-20T02:45:06;-4.10;99.90
7842;DHT22;3966;51.052;13.820;2022-11-20T02:47:32;-4.10;99.90
7842;DHT22;3966;51.052;13.820;2022-11-20T02:49:58;-4.20;99.90
7842;DHT22;3966;51.052;13.820;2022-11-20T02:52:24;-4.20;99.90
7842;DHT22;3966;51.052;13.820;2022-11-20T02:54:50;-4.20;99.90
7842;DHT22;3966;51.052;13.820;2022-11-20T02:57:15;-4.20;99.90
7842;DHT22;3966;51.052;13.820;2022-11-20T02:59:41;-4.20;99.90
7842;DHT22;3966;51.052;13.820;2022-11-20T03:02:06;-4.20;99.90
7842;DHT22;3966;51.052;13.820;2022-11-20T03:04:32;-4.20;99.90
7842;DHT22;3966;51.052;13.820;2022-11-20T03:06:57;-4.20;99.90
7842;DHT22;3966;51.052;13.820;2022-11-20T03:09:23;-4.30;99.90
7842;DHT22;3966;51.052;13.820;2022-11-20T03:11:48;-4.30;99.90
7842;DHT22;3966;51.052;13.820;2022-11-20T03:14:14;-4.30;99.90
7842;DHT22;3966;51.052;13.820;2022-11-20T03:16:39;-4.30;99.90
7842;DHT22;3966;51.052;13.820;2022-11-20T03:19:05;-4.30;99.90
7842;DHT22;3966;51.052;13.820;2022-11-20T03:21:33;-4.70;99.90
7842;DHT22;3966;51.052;13.820;2022-11-20T03:23:59;-4.60;99.90
7842;DHT22;3966;51.052;13.820;2022-11-20T03:26:26;-4.50;99.90
7842;DHT22;3966;51.052;13.820;2022-11-20T03:28:55;-4.70;99.90
7842;DHT22;3966;51.052;13.820;2022-11-20T03:31:31;-4.60;99.90
7842;DHT22;3966;51.052;13.820;2022-11-20T03:33:58;-4.70;99.90
7842;DHT22;3966;51.052;13.820;2022-11-20T03:36:24;-4.60;99.90
7842;DHT22;3966;51.052;13.820;2022-11-20T03:38:50;-4.60;99.90
7842;DHT22;3966;51.052;13.820;2022-11-20T03:41:27;-4.50;99.90
7842;DHT22;3966;51.052;13.820;2022-11-20T03:43:55;-4.50;99.90
7842;DHT22;3966;51.052;13.820;2022-11-20T03:46:21;-4.50;99.90
7842;DHT22;3966;51.052;13.820;2022-11-20T03:48:47;-4.40;99.90
7842;DHT22;3966;51.052;13.820;2022-11-20T03:51:17;-4.40;99.90
7842;DHT22;3966;51.052;13.820;2022-11-20T03:53:44;-4.40;99.90
7842;DHT22;3966;51.052;13.820;2022-11-20T03:56:11;-4.40;99.90
7842;DHT22;3966;51.052;13.820;2022-11-20T03:58:37;-4.40;99.90
7842;DHT22;3966;51.052;13.820;2022-11-20T04:01:08;-4.40;99.90
7842;DHT22;3966;51.052;13.820;2022-11-20T04:03:34;-4.30;99.90
7842;DHT22;3966;51.052;13.820;2022-11-20T04:06:09;-4.50;99.90
7842;DHT22;3966;51.052;13.820;2022-11-20T04:08:35;-4.50;99.90
7842;DHT22;3966;51.052;13.820;2022-11-20T04:11:16;-4.40;99.90
7842;DHT22;3966;51.052;13.820;2022-11-20T04:13:46;-4.40;99.90
7842;DHT22;3966;51.052;13.820;2022-11-20T04:16:12;-4.50;99.90
7842;DHT22;3966;51.052;13.820;2022-11-20T04:18:38;-4.50;99.90
7842;DHT22;3966;51.052;13.820;2022-11-20T04:21:04;-4.50;99.90
7842;DHT22;3966;51.052;13.820;2022-11-20T04:23:30;-4.50;99.90
7842;DHT22;3966;51.052;13.820;2022-11-20T04:26:11;-4.50;99.90
7842;DHT22;3966;51.052;13.820;2022-11-20T04:28:37;-4.50;99.90
7842;DHT22;3966;51.052;13.820;2022-11-20T04:31:18;-4.50;99.90
7842;DHT22;3966;51.052;13.820;2022-11-20T04:33:44;-4.50;99.90
7842;DHT22;3966;51.052;13.820;2022-11-20T04:36:16;-4.50;99.90
7842;DHT22;3966;51.052;13.820;2022-11-20T04:38:42;-4.40;99.90
7842;DHT22;3966;51.052;13.820;2022-11-20T04:41:17;-4.40;99.90
7842;DHT22;3966;51.052;13.820;2022-11-20T04:43:47;-4.40;99.90
7842;DHT22;3966;51.052;13.820;2022-11-20T04:46:14;-4.50;99.90
7842;DHT22;3966;51.052;13.820;2022-11-20T04:48:39;-4.50;99.90
7842;DHT22;3966;51.052;13.820;2022-11-20T04:51:05;-4.50;99.90
7842;DHT22;3966;51.052;13.820;2022-11-20T04:53:31;-4.50;99.90
7842;DHT22;3966;51.052;13.820;2022-11-20T04:56:01;-4.50;99.90
7842;DHT22;3966;51.052;13.820;2022-11-20T04:58:27;-4.50;99.90
7842;DHT22;3966;51.052;13.820;2022-11-20T05:00:53;-4.50;99.90
7842;DHT22;3966;51.052;13.820;2022-11-20T05:03:18;-4.50;99.90
7842;DHT22;3966;51.052;13.820;2022-11-20T05:05:44;-4.60;99.90
7842;DHT22;3966;51.052;13.820;2022-11-20T05:08:09;-4.60;99.90
7842;DHT22;3966;51.052;13.820;2022-11-20T05:10:35;-4.80;99.90
7842;DHT22;3966;51.052;13.820;2022-11-20T05:13:00;-4.70;99.90
7842;DHT22;3966;51.052;13.820;2022-11-20T05:15:26;-4.80;99.90
7842;DHT22;3966;51.052;13.820;2022-11-20T05:17:52;-4.80;99.90
7842;DHT22;3966;51.052;13.820;2022-11-20T05:20:18;-4.80;99.90
7842;DHT22;3966;51.052;13.820;2022-11-20T05:22:44;-4.70;99.90
7842;DHT22;3966;51.052;13.820;2022-11-20T05:25:11;-4.70;99.90
7842;DHT22;3966;51.052;13.820;2022-11-20T05:27:36;-4.70;99.90
7842;DHT22;3966;51.052;13.820;2022-11-20T05:30:03;-4.70;99.90
7842;DHT22;3966;51.052;13.820;2022-11-20T05:32:29;-4.70;99.90
7842;DHT22;3966;51.052;13.820;2022-11-20T05:34:54;-4.70;99.90
7842;DHT22;3966;51.052;13.820;2022-11-20T05:37:20;-4.70;99.90
7842;DHT22;3966;51.052;13.820;2022-11-20T05:39:45;-4.70;99.90
7842;DHT22;3966;51.052;13.820;2022-11-20T05:42:11;-4.70;99.90
7842;DHT22;3966;51.052;13.820;2022-11-20T05:44:55;-4.70;99.90
7842;DHT22;3966;51.052;13.820;2022-11-20T05:47:21;-4.70;99.90
7842;DHT22;3966;51.052;13.820;2022-11-20T05:49:46;-4.70;99.90
7842;DHT22;3966;51.052;13.820;2022-11-20T05:52:12;-4.70;99.90
7842;DHT22;3966;51.052;13.820;2022-11-20T05:54:37;-4.80;99.90
7842;DHT22;3966;51.052;13.820;2022-11-20T05:57:03;-4.80;99.90
7842;DHT22;3966;51.052;13.820;2022-11-20T05:59:28;-4.80;99.90
7842;DHT22;3966;51.052;13.820;2022-11-20T06:01:54;-4.70;99.90
7842;DHT22;3966;51.052;13.820;2022-11-20T06:04:19;-4.70;99.90
7842;DHT22;3966;51.052;13.820;2022-11-20T06:06:45;-4.70;99.90
7842;DHT22;3966;51.052;13.820;2022-11-20T06:09:10;-4.70;99.90
7842;DHT22;3966;51.052;13.820;2022-11-20T06:11:36;-4.70;99.90
7842;DHT22;3966;51.052;13.820;2022-11-20T06:14:01;-4.70;99.90
7842;DHT22;3966;51.052;13.820;2022-11-20T06:16:27;-4.70;99.90
7842;DHT22;3966;51.052;13.820;2022-11-20T06:18:52;-4.60;99.90
7842;DHT22;3966;51.052;13.820;2022-11-20T06:21:20;-4.70;99.90
7842;DHT22;3966;51.052;13.820;2022-11-20T06:23:46;-4.70;99.90
7842;DHT22;3966;51.052;13.820;2022-11-20T06:26:18;-4.70;99.90
7842;DHT22;3966;51.052;13.820;2022-11-20T06:28:43;-4.80;99.90
7842;DHT22;3966;51.052;13.820;2022-11-20T06:31:12;-4.80;99.90
7842;DHT22;3966;51.052;13.820;2022-11-20T06:33:38;-4.70;99.90
7842;DHT22;3966;51.052;13.820;2022-11-20T06:36:04;-4.70;99.90
7842;DHT22;3966;51.052;13.820;2022-11-20T06:38:30;-4.70;99.90
7842;DHT22;3966;51.052;13.820;2022-11-20T06:40:56;-4.70;99.90
7842;DHT22;3966;51.052;13.820;2022-11-20T06:43:22;-4.70;99.90
7842;DHT22;3966;51.052;13.820;2022-11-20T06:45:52;-4.70;99.90
7842;DHT22;3966;51.052;13.820;2022-11-20T06:48:18;-4.70;99.90
7842;DHT22;3966;51.052;13.820;2022-11-20T06:50:44;-4.70;99.90
7842;DHT22;3966;51.052;13.820;2022-11-20T06:53:09;-4.70;99.90
7842;DHT22;3966;51.052;13.820;2022-11-20T06:55:35;-4.70;99.90
7842;DHT22;3966;51.052;13.820;2022-11-20T06:58:00;-4.70;99.90
7842;DHT22;3966;51.052;13.820;2022-11-20T07:00:26;-4.60;99.90
7842;DHT22;3966;51.052;13.820;2022-11-20T07:02:51;-4.70;99.90
7842;DHT22;3966;51.052;13.820;2022-11-20T07:05:17;-4.70;99.90
7842;DHT22;3966;51.052;13.820;2022-11-20T07:07:43;-4.70;99.90
7842;DHT22;3966;51.052;13.820;2022-11-20T07:10:09;-4.70;99.90
7842;DHT22;3966;51.052;13.820;2022-11-20T07:12:35;-4.60;99.90
7842;DHT22;3966;51.052;13.820;2022-11-20T07:15:01;-4.60;99.90
7842;DHT22;3966;51.052;13.820;2022-11-20T07:17:26;-4.60;99.90
7842;DHT22;3966;51.052;13.820;2022-11-20T07:19:52;-4.60;99.90
7842;DHT22;3966;51.052;13.820;2022-11-20T07:22:17;-4.50;99.90
7842;DHT22;3966;51.052;13.820;2022-11-20T07:24:43;-4.50;99.90
7842;DHT22;3966;51.052;13.820;2022-11-20T07:27:09;-4.40;99.90
7842;DHT22;3966;51.052;13.820;2022-11-20T07:29:34;-4.30;99.90
7842;DHT22;3966;51.052;13.820;2022-11-20T07:32:00;-4.20;99.90
7842;DHT22;3966;51.052;13.820;2022-11-20T07:34:25;-4.30;99.90
7842;DHT22;3966;51.052;13.820;2022-11-20T07:36:51;-4.20;99.90
7842;DHT22;3966;51.052;13.820;2022-11-20T07:39:16;-4.20;99.90
7842;DHT22;3966;51.052;13.820;2022-11-20T07:41:42;-4.20;99.90
7842;DHT22;3966;51.052;13.820;2022-11-20T07:44:07;-4.20;99.90
7842;DHT22;3966;51.052;13.820;2022-11-20T07:46:33;-4.10;99.90
7842;DHT22;3966;51.052;13.820;2022-11-20T07:48:58;-4.10;99.90
7842;DHT22;3966;51.052;13.820;2022-11-20T07:51:24;-4.10;99.90
7842;DHT22;3966;51.052;13.820;2022-11-20T07:53:52;-4.00;99.90
7842;DHT22;3966;51.052;13.820;2022-11-20T07:56:17;-3.90;99.90
7842;DHT22;3966;51.052;13.820;2022-11-20T07:58:43;-3.90;99.90
7842;DHT22;3966;51.052;13.820;2022-11-20T08:01:08;-3.80;99.90
7842;DHT22;3966;51.052;13.820;2022-11-20T08:03:34;-3.80;99.90
7842;DHT22;3966;51.052;13.820;2022-11-20T08:06:00;-3.70;99.90
7842;DHT22;3966;51.052;13.820;2022-11-20T08:08:27;-3.60;99.90
7842;DHT22;3966;51.052;13.820;2022-11-20T08:10:53;-4.00;99.90
7842;DHT22;3966;51.052;13.820;2022-11-20T08:13:39;-4.00;99.90
7842;DHT22;3966;51.052;13.820;2022-11-20T08:16:23;-3.80;99.90
7842;DHT22;3966;51.052;13.820;2022-11-20T08:18:49;-3.70;99.90
7842;DHT22;3966;51.052;13.820;2022-11-20T08:21:15;-3.60;99.90
7842;DHT22;3966;51.052;13.820;2022-11-20T08:23:40;-3.50;99.90
7842;DHT22;3966;51.052;13.820;2022-11-20T08:26:06;-3.50;99.90
7842;DHT22;3966;51.052;13.820;2022-11-20T08:28:31;-3.40;99.90
7842;DHT22;3966;51.052;13.820;2022-11-20T08:31:01;-3.30;99.90
7842;DHT22;3966;51.052;13.820;2022-11-20T08:33:28;-3.20;99.90
7842;DHT22;3966;51.052;13.820;2022-11-20T08:36:01;-3.10;99.90
7842;DHT22;3966;51.052;13.820;2022-11-20T08:38:27;-3.10;99.90
7842;DHT22;3966;51.052;13.820;2022-11-20T08:40:59;-3.00;99.90
7842;DHT22;3966;51.052;13.820;2022-11-20T08:43:44;-3.00;99.90
7842;DHT22;3966;51.052;13.820;2022-11-20T08:46:09;-2.80;99.90
7842;DHT22;3966;51.052;13.820;2022-11-20T08:48:35;-2.70;99.90
7842;DHT22;3966;51.052;13.820;2022-11-20T08:51:00;-2.60;99.90
7842;DHT22;3966;51.052;13.820;2022-11-20T08:53:27;-2.40;99.90
7842;DHT22;3966;51.052;13.820;2022-11-20T08:55:52;-2.40;99.90
7842;DHT22;3966;51.052;13.820;2022-11-20T08:58:18;-2.30;99.90
7842;DHT22;3966;51.052;13.820;2022-11-20T09:00:43;-2.20;99.90
7842;DHT22;3966;51.052;13.820;2022-11-20T09:03:09;-2.10;99.90
7842;DHT22;3966;51.052;13.820;2022-11-20T09:05:34;-1.90;99.90
7842;DHT22;3966;51.052;13.820;2022-11-20T09:08:03;-1.80;99.90
7842;DHT22;3966;51.052;13.820;2022-11-20T09:10:28;-1.80;99.90
7842;DHT22;3966;51.052;13.820;2022-11-20T09:12:54;-1.90;99.90
7842;DHT22;3966;51.052;13.820;2022-11-20T09:15:20;-1.70;99.90
7842;DHT22;3966;51.052;13.820;2022-11-20T09:17:57;-1.70;99.90
7842;DHT22;3966;51.052;13.820;2022-11-20T09:20:24;-1.60;99.90
7842;DHT22;3966;51.052;13.820;2022-11-20T09:22:50;-1.40;99.90
7842;DHT22;3966;51.052;13.820;2022-11-20T09:25:16;-1.30;99.90
7842;DHT22;3966;51.052;13.820;2022-11-20T09:27:41;-1.30;99.90
7842;DHT22;3966;51.052;13.820;2022-11-20T09:30:09;-1.00;99.90
7842;DHT22;3966;51.052;13.820;2022-11-20T09:32:34;-0.80;99.90
7842;DHT22;3966;51.052;13.820;2022-11-20T09:35:01;-0.70;99.90
7842;DHT22;3966;51.052;13.820;2022-11-20T09:37:27;-0.60;99.90
7842;DHT22;3966;51.052;13.820;2022-11-20T09:39:52;-0.40;99.90
7842;DHT22;3966;51.052;13.820;2022-11-20T09:42:34;0.00;99.90
7842;DHT22;3966;51.052;13.820;2022-11-20T09:50:36;0.50;99.90
7842;DHT22;3966;51.052;13.820;2022-11-20T09:56:03;0.80;99.90
7842;DHT22;3966;51.052;13.820;2022-11-20T09:58:35;1.00;99.90
7842;DHT22;3966;51.052;13.820;2022-11-20T10:01:14;1.30;99.90
7842;DHT22;3966;51.052;13.820;2022-11-20T10:03:57;1.40;99.90
7842;DHT22;3966;51.052;13.820;2022-11-20T10:06:37;1.70;99.90
7842;DHT22;3966;51.052;13.820;2022-11-20T10:09:16;2.00;99.90
7842;DHT22;3966;51.052;13.820;2022-11-20T10:12:04;2.30;99.90
7842;DHT22;3966;51.052;13.820;2022-11-20T10:22:44;2.70;99.90
7842;DHT22;3966;51.052;13.820;2022-11-20T10:25:15;2.40;99.90
7842;DHT22;3966;51.052;13.820;2022-11-20T10:30:19;2.40;99.90
7842;DHT22;3966;51.052;13.820;2022-11-20T10:32:50;2.40;99.90
7842;DHT22;3966;51.052;13.820;2022-11-20T10:38:37;2.90;99.90
7842;DHT22;3966;51.052;13.820;2022-11-20T10:41:06;2.90;99.90
7842;DHT22;3966;51.052;13.820;2022-11-20T10:46:43;3.50;99.90
7842;DHT22;3966;51.052;13.820;2022-11-20T10:49:17;3.50;99.90
7842;DHT22;3966;51.052;13.820;2022-11-20T10:51:55;3.50;99.90
7842;DHT22;3966;51.052;13.820;2022-11-20T10:54:47;3.30;99.90
7842;DHT22;3966;51.052;13.820;2022-11-20T10:57:31;3.30;99.90
7842;DHT22;3966;51.052;13.820;2022-11-20T11:00:11;3.00;99.90
7842;DHT22;3966;51.052;13.820;2022-11-20T11:03:07;2.80;99.90
7842;DHT22;3966;51.052;13.820;2022-11-20T11:05:50;2.70;99.90
7842;DHT22;3966;51.052;13.820;2022-11-20T11:08:19;2.60;99.90
7842;DHT22;3966;51.052;13.820;2022-11-20T11:10:54;2.70;99.90
7842;DHT22;3966;51.052;13.820;2022-11-20T11:13:29;2.80;99.90
7842;DHT22;3966;51.052;13.820;2022-11-20T11:15:55;3.20;99.90
7842;DHT22;3966;51.052;13.820;2022-11-20T11:18:32;3.60;99.90
7842;DHT22;3966;51.052;13.820;2022-11-20T11:21:04;3.60;99.90
7842;DHT22;3966;51.052;13.820;2022-11-20T11:23:41;4.10;99.90
7842;DHT22;3966;51.052;13.820;2022-11-20T11:26:20;4.30;99.90
7842;DHT22;3966;51.052;13.820;2022-11-20T11:29:17;4.50;99.90
7842;DHT22;3966;51.052;13.820;2022-11-20T11:31:43;4.60;99.90
7842;DHT22;3966;51.052;13.820;2022-11-20T11:34:14;4.10;99.90
7842;DHT22;3966;51.052;13.820;2022-11-20T11:36:41;3.70;99.90
7842;DHT22;3966;51.052;13.820;2022-11-20T11:39:18;3.50;99.90
7842;DHT22;3966;51.052;13.820;2022-11-20T11:41:45;3.40;99.90
7842;DHT22;3966;51.052;13.820;2022-11-20T11:44:30;3.50;99.90
7842;DHT22;3966;51.052;13.820;2022-11-20T11:47:26;3.40;99.90
7842;DHT22;3966;51.052;13.820;2022-11-20T11:52:47;6.80;99.90
7842;DHT22;3966;51.052;13.820;2022-11-20T11:55:21;7.10;99.90
7842;DHT22;3966;51.052;13.820;2022-11-20T11:58:44;7.20;99.90
7842;DHT22;3966;51.052;13.820;2022-11-20T12:00:57;7.50;99.90
7842;DHT22;3966;51.052;13.820;2022-11-20T12:03:38;7.10;99.90
7842;DHT22;3966;51.052;13.820;2022-11-20T12:06:24;4.90;99.90
7842;DHT22;3966;51.052;13.820;2022-11-20T12:09:04;3.80;99.90
7842;DHT22;3966;51.052;13.820;2022-11-20T12:11:56;4.10;99.90
7842;DHT22;3966;51.052;13.820;2022-11-20T12:14:43;3.60;99.90
7842;DHT22;3966;51.052;13.820;2022-11-20T12:17:11;3.00;99.90
7842;DHT22;3966;51.052;13.820;2022-11-20T12:19:37;2.90;99.90
7842;DHT22;3966;51.052;13.820;2022-11-20T12:30:14;4.40;99.90
7842;DHT22;3966;51.052;13.820;2022-11-20T12:44:57;2.30;99.90
7842;DHT22;3966;51.052;13.820;2022-11-20T12:56:14;1.60;99.90
7842;DHT22;3966;51.052;13.820;2022-11-20T13:01:55;2.10;99.90
7842;DHT22;3966;51.052;13.820;2022-11-20T13:07:05;2.90;99.90
7842;DHT22;3966;51.052;13.820;2022-11-20T13:09:32;2.20;99.90
7842;DHT22;3966;51.052;13.820;2022-11-20T13:14:40;1.90;99.90
7842;DHT22;3966;51.052;13.820;2022-11-20T13:17:30;1.80;99.90
7842;DHT22;3966;51.052;13.820;2022-11-20T13:19:59;2.70;99.90
7842;DHT22;3966;51.052;13.820;2022-11-20T13:22:54;3.90;99.90
7842;DHT22;3966;51.052;13.820;2022-11-20T13:25:31;3.40;99.90
7842;DHT22;3966;51.052;13.820;2022-11-20T13:27:59;2.70;99.90
7842;DHT22;3966;51.052;13.820;2022-11-20T13:30:27;2.10;99.90
7842;DHT22;3966;51.052;13.820;2022-11-20T13:33:00;1.90;99.90
7842;DHT22;3966;51.052;13.820;2022-11-20T13:35:35;2.30;99.90
7842;DHT22;3966;51.052;13.820;2022-11-20T13:38:12;3.00;99.90
7842;DHT22;3966;51.052;13.820;2022-11-20T13:40:58;3.50;99.90
7842;DHT22;3966;51.052;13.820;2022-11-20T13:43:37;3.20;99.90
7842;DHT22;3966;51.052;13.820;2022-11-20T13:46:06;2.40;99.90
7842;DHT22;3966;51.052;13.820;2022-11-20T13:48:39;2.50;99.90
7842;DHT22;3966;51.052;13.820;2022-11-20T13:51:13;2.00;99.90
7842;DHT22;3966;51.052;13.820;2022-11-20T14:02:10;1.90;99.90
7842;DHT22;3966;51.052;13.820;2022-11-20T14:04:45;1.70;99.90
7842;DHT22;3966;51.052;13.820;2022-11-20T14:07:12;1.80;99.90
7842;DHT22;3966;51.052;13.820;2022-11-20T14:09:38;1.90;99.90
7842;DHT22;3966;51.052;13.820;2022-11-20T14:12:15;1.60;99.90
7842;DHT22;3966;51.052;13.820;2022-11-20T14:14:48;1.80;99.90
7842;DHT22;3966;51.052;13.820;2022-11-20T14:17:21;1.70;99.90
7842;DHT22;3966;51.052;13.820;2022-11-20T14:19:49;1.50;99.90
7842;DHT22;3966;51.052;13.820;2022-11-20T14:22:25;1.70;99.90
7842;DHT22;3966;51.052;13.820;2022-11-20T14:27:39;1.90;99.90
7842;DHT22;3966;51.052;13.820;2022-11-20T14:30:16;2.10;99.90
7842;DHT22;3966;51.052;13.820;2022-11-20T14:32:43;2.10;99.90
7842;DHT22;3966;51.052;13.820;2022-11-20T14:35:57;2.90;99.90
7842;DHT22;3966;51.052;13.820;2022-11-20T14:38:03;3.60;99.90
7842;DHT22;3966;51.052;13.820;2022-11-20T14:40:32;4.00;99.90
7842;DHT22;3966;51.052;13.820;2022-11-20T14:43:23;3.10;99.90
7842;DHT22;3966;51.052;13.820;2022-11-20T14:46:01;3.10;99.90
7842;DHT22;3966;51.052;13.820;2022-11-20T14:48:35;3.40;99.90
7842;DHT22;3966;51.052;13.820;2022-11-20T14:51:02;3.60;99.90
7842;DHT22;3966;51.052;13.820;2022-11-20T14:53:28;3.60;99.90
7842;DHT22;3966;51.052;13.820;2022-11-20T14:55:59;3.20;99.90
7842;DHT22;3966;51.052;13.820;2022-11-20T14:58:27;4.00;99.90
7842;DHT22;3966;51.052;13.820;2022-11-20T15:00:59;3.50;99.90
7842;DHT22;3966;51.052;13.820;2022-11-20T15:03:36;3.00;99.90
7842;DHT22;3966;51.052;13.820;2022-11-20T15:06:09;3.50;99.90
7842;DHT22;3966;51.052;13.820;2022-11-20T15:08:38;3.90;99.90
7842;DHT22;3966;51.052;13.820;2022-11-20T15:11:20;5.20;99.90
7842;DHT22;3966;51.052;13.820;2022-11-20T15:13:48;5.40;99.90
7842;DHT22;3966;51.052;13.820;2022-11-20T15:16:19;4.80;99.90
7842;DHT22;3966;51.052;13.820;2022-11-20T15:18:45;4.60;99.90
7842;DHT22;3966;51.052;13.820;2022-11-20T15:21:16;4.50;99.90
7842;DHT22;3966;51.052;13.820;2022-11-20T15:23:42;5.10;99.90
7842;DHT22;3966;51.052;13.820;2022-11-20T15:26:10;5.20;99.90
7842;DHT22;3966;51.052;13.820;2022-11-20T15:28:43;5.40;99.90
7842;DHT22;3966;51.052;13.820;2022-11-20T15:31:12;5.10;99.90
7842;DHT22;3966;51.052;13.820;2022-11-20T15:33:38;4.80;99.90
7842;DHT22;3966;51.052;13.820;2022-11-20T15:36:04;5.00;99.90
7842;DHT22;3966;51.052;13.820;2022-11-20T15:38:29;4.90;99.90
7842;DHT22;3966;51.052;13.820;2022-11-20T15:40:55;5.10;99.90
7842;DHT22;3966;51.052;13.820;2022-11-20T15:43:21;5.50;99.90
7842;DHT22;3966;51.052;13.820;2022-11-20T15:45:58;6.10;99.90
7842;DHT22;3966;51.052;13.820;2022-11-20T15:48:29;6.20;99.90
7842;DHT22;3966;51.052;13.820;2022-11-20T15:51:26;6.30;99.90
7842;DHT22;3966;51.052;13.820;2022-11-20T15:53:52;6.10;99.90
7842;DHT22;3966;51.052;13.820;2022-11-20T15:56:18;6.10;99.90
7842;DHT22;3966;51.052;13.820;2022-11-20T15:58:43;5.70;99.90
7842;DHT22;3966;51.052;13.820;2022-11-20T16:01:14;5.50;99.90
7842;DHT22;3966;51.052;13.820;2022-11-20T16:03:41;5.90;99.90
7842;DHT22;3966;51.052;13.820;2022-11-20T16:06:06;6.40;99.90
7842;DHT22;3966;51.052;13.820;2022-11-20T16:08:32;6.80;99.90
7842;DHT22;3966;51.052;13.820;2022-11-20T16:10:58;6.60;99.90
7842;DHT22;3966;51.052;13.820;2022-11-20T16:13:23;6.60;99.90
7842;DHT22;3966;51.052;13.820;2022-11-20T16:16:17;6.40;99.90
7842;DHT22;3966;51.052;13.820;2022-11-20T16:18:44;6.50;99.90
7842;DHT22;3966;51.052;13.820;2022-11-20T16:21:13;6.60;99.90
7842;DHT22;3966;51.052;13.820;2022-11-20T16:23:39;6.10;99.90
7842;DHT22;3966;51.052;13.820;2022-11-20T16:26:16;5.60;99.90
7842;DHT22;3966;51.052;13.820;2022-11-20T16:28:42;5.50;99.90
7842;DHT22;3966;51.052;13.820;2022-11-20T16:31:18;5.10;99.90
7842;DHT22;3966;51.052;13.820;2022-11-20T16:33:55;5.10;99.90
7842;DHT22;3966;51.052;13.820;2022-11-20T16:36:22;4.70;99.90
7842;DHT22;3966;51.052;13.820;2022-11-20T16:38:55;5.00;99.90
7842;DHT22;3966;51.052;13.820;2022-11-20T16:41:21;5.40;99.90
7842;DHT22;3966;51.052;13.820;2022-11-20T16:43:52;5.50;99.90
7842;DHT22;3966;51.052;13.820;2022-11-20T16:46:19;6.00;99.90
7842;DHT22;3966;51.052;13.820;2022-11-20T16:48:52;6.00;99.90
7842;DHT22;3966;51.052;13.820;2022-11-20T16:51:18;6.00;99.90
7842;DHT22;3966;51.052;13.820;2022-11-20T16:53:43;5.70;99.90
7842;DHT22;3966;51.052;13.820;2022-11-20T16:56:14;5.60;99.90
7842;DHT22;3966;51.052;13.820;2022-11-20T16:58:43;5.60;99.90
7842;DHT22;3966;51.052;13.820;2022-11-20T17:01:12;5.70;99.90
7842;DHT22;3966;51.052;13.820;2022-11-20T17:03:38;5.40;99.90
7842;DHT22;3966;51.052;13.820;2022-11-20T17:06:17;5.30;99.90
7842;DHT22;3966;51.052;13.820;2022-11-20T17:08:44;5.20;99.90
7842;DHT22;3966;51.052;13.820;2022-11-20T17:11:11;5.30;99.90
7842;DHT22;3966;51.052;13.820;2022-11-20T17:13:38;5.10;99.90
7842;DHT22;3966;51.052;13.820;2022-11-20T17:16:06;5.40;99.90
7842;DHT22;3966;51.052;13.820;2022-11-20T17:18:31;5.30;99.90
7842;DHT22;3966;51.052;13.820;2022-11-20T17:20:58;5.00;99.90
7842;DHT22;3966;51.052;13.820;2022-11-20T17:23:27;5.10;99.90
7842;DHT22;3966;51.052;13.820;2022-11-20T17:26:01;4.70;99.90
7842;DHT22;3966;51.052;13.820;2022-11-20T17:28:28;5.10;99.90